Welkom op onze vernieuwde website. Er wordt nog verder aan gewerkt.


Bezoek ook deze websites:

Template documentation
and downloads

And another site


U vindt ons ook hier:

Weather Underground



METAR rapporten vliegvelden


Warning: A non-numeric value encountered in /home/public/sites/www.plaatinfo.nl/weather28/metar/metarDisplay.php on line 166
   
EHVK - Volkel Rnlafb, Netherlands
Afstand tot: ZW 18 km
Gewijzigd: 27-09-2022 20:25
Wat regen mogelijk, Grotendeels bewolkt  
Wat regen mogelijk, Grotendeels bewolkt  
   Wind: ZZW 11.1 km/h
Wind: ZZW 11.1 km/h
Temperatuur: 9°C
Voelt als: 7°C
Dauwpunt: 8°C
Vochtigheid: 94%
Barometer: 997 mb
Bewolking: Grotendeels bewolkt
Zicht: meer dan 10 km
Bewolking: Licht bewolkt 1500 ft,
Grotendeels bewolkt 4800 ft,
Grotendeels bewolkt 5200 ft
EHVK 271825Z AUTO 21006KT 170V250 9999 -RA FEW015CB BKN048 BKN052 09/08 Q0997 BLU
EDLV - Niederrhein, Germany
Afstand tot: ZO 25 km
Gewijzigd: 27-09-2022 20:20
Wat regen mogelijk, Gedeeltelijk bewolkt  
Wat regen mogelijk, Gedeeltelijk bewolkt  
   Wind: ZZW 11.1 km/h
Wind: ZZW 11.1 km/h
Temperatuur: 9°C
Voelt als: 7°C
Dauwpunt: 8°C
Vochtigheid: 94%
Barometer: 997 mb
Bewolking: Gedeeltelijk bewolkt
Zicht: meer dan 10 km
Bewolking: Gedeeltelijk bewolkt
EDLV 271820Z 20006KT 180V240 9999 -RA NSC 09/08 Q0997
EHDL - Deelen Rnlafb, Netherlands
Afstand tot: N 35 km
Gewijzigd: 27-09-2022 20:25
Grotendeels bewolkt  
Grotendeels bewolkt  
   Wind: ZZW 7.4 km/h
Wind: ZZW 7.4 km/h
Temperatuur: 9°C
Voelt als: 8°C
Dauwpunt: 8°C
Vochtigheid: 94%
Barometer: 996 mb
Bewolking: Grotendeels bewolkt
Zicht: meer dan 10 km
Bewolking: Licht bewolkt 4100 ft,
Gedeeltelijk bewolkt 8300 ft,
Grotendeels bewolkt 9600 ft
EHDL 271825Z AUTO 21004KT 140V240 9999 FEW041 SCT083 BKN096 09/08 Q0996 BLU
EHEH - Eindhoven Rnlafb, Netherlands
Afstand tot: ZW 48 km
Gewijzigd: 27-09-2022 20:25
Bewolking  
Bewolking  
   Wind: Zuiden 9.3 km/h
Wind: Zuiden 9.3 km/h
Temperatuur: 8°C
Voelt als: 7°C
Dauwpunt: 8°C
Vochtigheid: 100%
Barometer: 997 mb
Bewolking: Bewolking
Zicht: meer dan 10 km
Bewolking: Licht bewolkt 1500 ft,
Grotendeels bewolkt 4300 ft,
Bewolking 4800 ft
EHEH 271825Z AUTO 19005KT 9999 FEW015CB BKN043 OVC048 08/08 Q0997 REDZ BLU TEMPO 27013G23KT 4000 SHRA TSRA FEW003 SCT008 SCT018CB BKN030
EHGR - Gilze-Rijen Rnla, Netherlands
Afstand tot: WZW 70 km
Gewijzigd: 27-09-2022 20:25
Regenbuien, Regen, Bewolking  
Regenbuien, Regen, Bewolking  
   Wind: ZZW 11.1 km/h
Wind: ZZW 11.1 km/h
Temperatuur: 9°C
Voelt als: 7°C
Dauwpunt: 8°C
Vochtigheid: 94%
Barometer: 997 mb
Bewolking: Bewolking
Zicht: 8 km
Bewolking: Grotendeels bewolkt 1500 ft,
Gedeeltelijk bewolkt 3600 ft,
Bewolking 4200 ft
EHGR 271825Z AUTO 21006KT 180V270 8000 SHRA BKN015CB SCT036 OVC042 09/08 Q0997 REUP WHT TEMPO 2000 TSRA SCT010 SCT018CB BKN025
EBBL - Kleine-Brogel(Ba, Belgium
Afstand tot: ZZW 71 km
Gewijzigd: 27-09-2022 20:25
Grotendeels bewolkt  
Grotendeels bewolkt  
   Wind: ZZW 9.3 km/h
Wind: ZZW 9.3 km/h
Temperatuur: 9°C
Voelt als: 8°C
Dauwpunt: 8°C
Vochtigheid: 94%
Barometer: 997 mb
Bewolking: Grotendeels bewolkt
Zicht: meer dan 10 km
Bewolking: Gedeeltelijk bewolkt 4000 ft,
Grotendeels bewolkt 7000 ft,
Grotendeels bewolkt 14000 ft
EBBL 271825Z 20005KT 9999 SCT040 BKN070 BKN140 09/08 Q0997 BLU BLU BECMG WHT

Script ontwikkeld door  Saratoga-weather.org Aangepast voor de template door  Weerstation Leuven

Apparatuur in gebruik:

Weerstation
Davis VP Vue

Weerprogramma
Meteobridge

Weercomputer
MeteoBridge Red +

Webleverancier
mijn Domein

Davis VP Vue

Meteobridge

MeteoBridge Red +

mijn Domein